Condor Express — 9V5373 — position and weather

sailwx.info

Track history (hours):
 
Tides and Currents Weather Stations Pressure Air Temp Water Temp Dewpoint Dewpoint Depression Visibility Wind Speed Wind Dir Waves Ship Positions

Condor Express

Operator: Condor Marine Services

Last reported at 2019-Jun-05 03:28 UTC. Time now 2019-Jun-16 14:53 UTC.
Position N 31°07' E 123°25'.
Warning: this ship's position is 11 days out of date.

Length 235 m; draft 7.7 m.

Type: Cargo ship. MMSI: 563014500.

Date/timePositionNaut miles runAvg speedWind from/ knotsBaromVisibWave heightAir tempDewpointWater temp
2019-Jun-05 03:28N 31°07' E 123°25'610.3
2019-Jun-05 02:56N 31°12' E 123°23'410.2
2019-Jun-05 02:30N 31°15' E 123°20'6 9.9
2019-Jun-05 01:56N 31°20' E 123°15'610.3
2019-Jun-05 01:22N 31°25' E 123°12'1210.7
2019-Jun-05 00:16N 31°35' E 123°06'711.5
2019-Jun-04 23:40N 31°42' E 123°02'211.8
2019-Jun-04 23:30N 31°43' E 123°01'612.0
2019-Jun-04 22:59N 31°49' E 122°59'712.1
2019-Jun-04 22:25N 31°55' E 122°55'1012.5
2019-Jun-04 21:38N 32°03' E 122°49'612.1
2019-Jun-04 21:08N 32°09' E 122°46'211.7
2019-Jun-04 20:59N 32°10' E 122°45'1711.0
2019-Jun-04 19:29N 32°25' E 122°36'510.2
2019-Jun-04 19:00N 32°30' E 122°33'510.3
2019-Jun-04 18:29N 32°34' E 122°31'18 9.7
2019-Jun-04 16:35N 32°51' E 122°21'1 9.4
2019-Jun-04 16:28N 32°52' E 122°20'5 9.7
2019-Jun-04 15:55N 32°57' E 122°18'410.0
2019-Jun-04 15:30N 33°01' E 122°17'610.5
2019-Jun-04 14:54N 33°07' E 122°14'411.1
2019-Jun-04 14:30N 33°11' E 122°12'611.4
2019-Jun-04 13:58N 33°17' E 122°10'511.5
2019-Jun-04 13:30N 33°21' E 122°07'611.4
2019-Jun-04 13:00N 33°26' E 122°04'713.0
2019-Jun-04 12:30N 33°32' E 122°00'612.8
2019-Jun-04 12:00N 33°38' E 121°57'711.8
2019-Jun-04 11:23N 33°41' E 121°49'612.3
2019-Jun-04 10:52N 33°44' E 121°42'512.3
2019-Jun-04 10:27N 33°46' E 121°36'612.3
2019-Jun-04 10:00N 33°48' E 121°30'611.4
2019-Jun-04 09:30N 33°48' E 121°23'612.9
2019-Jun-04 09:00N 33°45' E 121°17'612.9
2019-Jun-04 08:30N 33°42' E 121°09'611.7
2019-Jun-04 08:00N 33°42' E 121°02'611.5
2019-Jun-04 07:30N 33°42' E 120°55'611.3
2019-Jun-04 07:00N 33°41' E 120°49'612.5
2019-Jun-04 06:30N 33°36' E 120°45'714.2
2019-Jun-04 06:01N 33°29' E 120°47'713.7
2019-Jun-04 05:30N 33°22' E 120°50'612.4
2019-Jun-04 05:00N 33°16' E 120°52'2 4.3
2019-Jun-04 04:29N 33°14' E 120°52'0 0.0
2019-Jun-04 03:59N 33°14' E 120°52'0 0.0
2019-Jun-04 03:29N 33°14' E 120°52'0 0.0
2019-Jun-04 02:59N 33°14' E 120°52'0 0.0
2019-Jun-04 02:29N 33°14' E 120°52'0 0.0
2019-Jun-04 01:59N 33°14' E 120°52'0 0.0
2019-Jun-04 01:29N 33°14' E 120°52'0 0.0
2019-Jun-04 00:59N 33°14' E 120°52'0 0.0
2019-Jun-04 00:29N 33°14' E 120°52'0 0.0
2019-Jun-03 23:59N 33°14' E 120°52'0 0.0
2019-Jun-03 23:26N 33°14' E 120°52'0 0.0
2019-Jun-03 22:59N 33°14' E 120°52'0 0.0
2019-Jun-03 22:29N 33°14' E 120°52'0 0.0
2019-Jun-03 21:59N 33°14' E 120°52'0 0.0
2019-Jun-03 21:29N 33°14' E 120°52'0 0.0
2019-Jun-03 20:59N 33°14' E 120°52'0 0.0
2019-Jun-03 20:29N 33°14' E 120°52'0 0.0
2019-Jun-03 19:59N 33°14' E 120°52'0 0.0
2019-Jun-03 19:29N 33°14' E 120°52'0 0.0
2019-Jun-03 18:59N 33°14' E 120°52'0 0.0
2019-Jun-03 18:29N 33°14' E 120°52'0 0.0
2019-Jun-03 17:59N 33°14' E 120°52'0 0.0
2019-Jun-03 17:29N 33°14' E 120°52'0 0.0
2019-Jun-03 16:59N 33°14' E 120°52'0 0.0
2019-Jun-03 16:29N 33°14' E 120°52'0 0.0
2019-Jun-03 15:59N 33°14' E 120°52'0 0.0
2019-Jun-03 15:29N 33°14' E 120°52'0 0.0
2019-Jun-03 14:59N 33°14' E 120°52'0 0.0
2019-Jun-03 14:26N 33°14' E 120°52'0 0.0
2019-Jun-03 13:59N 33°14' E 120°52'0 0.0
2019-Jun-03 13:29N 33°14' E 120°52'0 0.0
2019-Jun-03 12:59N 33°14' E 120°52'0 0.0
2019-Jun-03 12:29N 33°14' E 120°52'0 0.0
2019-Jun-03 11:59N 33°14' E 120°52'0 0.0
2019-Jun-03 11:29N 33°14' E 120°52'0 0.0
2019-Jun-03 10:59N 33°14' E 120°52'0 0.0
2019-Jun-03 10:29N 33°14' E 120°52'0 0.0
2019-Jun-03 09:59N 33°14' E 120°52'0 0.0
2019-Jun-03 09:29N 33°14' E 120°52'0 0.0
2019-Jun-03 08:59N 33°14' E 120°52'0 0.0
2019-Jun-03 08:29N 33°14' E 120°52'0 0.0
2019-Jun-03 07:59N 33°14' E 120°52'0 0.0
2019-Jun-03 07:29N 33°14' E 120°52'0 0.0
2019-Jun-03 06:59N 33°14' E 120°52'0 0.0
2019-Jun-03 06:29N 33°14' E 120°52'0 0.0
2019-Jun-03 05:59N 33°14' E 120°52'0 0.0
2019-Jun-03 05:29N 33°14' E 120°52'0 0.0
2019-Jun-03 04:59N 33°14' E 120°52'0 0.0
2019-Jun-03 04:29N 33°14' E 120°52'0 0.0
2019-Jun-03 03:59N 33°14' E 120°52'0 0.0
2019-Jun-03 03:29N 33°14' E 120°52'0 0.0
2019-Jun-03 02:59N 33°14' E 120°52'0 0.0
2019-Jun-03 02:29N 33°14' E 120°52'0 0.0
2019-Jun-03 01:59N 33°14' E 120°52'0 0.0
2019-Jun-03 01:29N 33°14' E 120°52'0 0.0
2019-Jun-03 00:59N 33°14' E 120°52'0 0.0
2019-Jun-03 00:29N 33°14' E 120°52'0 0.0
2019-Jun-02 23:59N 33°14' E 120°52'0 0.0
2019-Jun-02 23:29N 33°14' E 120°52'0 0.0
2019-Jun-02 22:59N 33°14' E 120°52'0 0.0
2019-Jun-02 22:29N 33°14' E 120°52'0 0.0
2019-Jun-02 21:59N 33°14' E 120°52'0 0.0
2019-Jun-02 21:29N 33°14' E 120°52'0 0.0
2019-Jun-02 20:59N 33°14' E 120°52'0 0.0
2019-Jun-02 20:29N 33°14' E 120°52'0 0.0
2019-Jun-02 19:59N 33°14' E 120°52'0 0.0
2019-Jun-02 19:29N 33°14' E 120°52'0 0.0
2019-Jun-02 18:59N 33°14' E 120°52'0 0.0
2019-Jun-02 18:29N 33°14' E 120°52'0 0.0
2019-Jun-02 17:59N 33°14' E 120°52'0 0.0
2019-Jun-02 17:29N 33°14' E 120°52'0 0.0
2019-Jun-02 16:59N 33°14' E 120°52'0 0.0
2019-Jun-02 16:29N 33°14' E 120°52'0 0.0
2019-Jun-02 15:59N 33°14' E 120°52'0 0.0
2019-Jun-02 15:29N 33°14' E 120°52'0 0.0
2019-Jun-02 14:59N 33°14' E 120°52'0 0.0
2019-Jun-02 14:29N 33°14' E 120°52'0 0.0
2019-Jun-02 13:59N 33°14' E 120°52'0 0.0
2019-Jun-02 13:29N 33°14' E 120°52'0 0.0
2019-Jun-02 12:59N 33°14' E 120°52'0 0.0
2019-Jun-02 12:29N 33°14' E 120°52'0 0.0
2019-Jun-02 11:59N 33°14' E 120°52'0 0.0
2019-Jun-02 11:29N 33°14' E 120°52'0 0.0
2019-Jun-02 10:59N 33°14' E 120°52'0 0.0
2019-Jun-02 10:29N 33°14' E 120°52'0 0.0
2019-Jun-02 09:59N 33°14' E 120°52'0 0.0
2019-Jun-02 09:29N 33°14' E 120°52'0 0.0
2019-Jun-02 08:59N 33°14' E 120°52'0 0.0
2019-Jun-02 08:29N 33°14' E 120°52'0 0.0
2019-Jun-02 07:59N 33°14' E 120°52'0 0.0
2019-Jun-02 07:29N 33°14' E 120°52'0 0.0
2019-Jun-02 06:59N 33°14' E 120°52'0 0.0
2019-Jun-02 06:29N 33°14' E 120°52'0 0.0
2019-Jun-02 05:59N 33°14' E 120°52'0 0.0
2019-Jun-02 05:29N 33°14' E 120°52'0 0.0
2019-Jun-02 04:59N 33°14' E 120°52'0 0.0
2019-Jun-02 04:29N 33°14' E 120°52'0 0.0
2019-Jun-02 03:59N 33°14' E 120°52'0 0.0
2019-Jun-02 03:29N 33°14' E 120°52'0 0.0
2019-Jun-02 02:59N 33°14' E 120°52'0 0.0
2019-Jun-02 02:29N 33°14' E 120°52'0 0.0
2019-Jun-02 01:59N 33°14' E 120°52'0 0.0
2019-Jun-02 01:29N 33°14' E 120°52'0 0.0
2019-Jun-02 00:59N 33°14' E 120°52'0 0.0
2019-Jun-02 00:29N 33°14' E 120°52'0 0.0
2019-Jun-01 23:59N 33°14' E 120°52'0 0.0
2019-Jun-01 23:29N 33°14' E 120°52'0 0.0
2019-Jun-01 22:59N 33°14' E 120°52'0 0.0
2019-Jun-01 22:29N 33°14' E 120°52'0 0.0
2019-Jun-01 21:59N 33°14' E 120°52'0 0.0
2019-Jun-01 21:29N 33°14' E 120°52'0 0.0
2019-Jun-01 20:59N 33°14' E 120°52'0 0.0
2019-Jun-01 20:29N 33°14' E 120°52'0 0.0
2019-Jun-01 19:59N 33°14' E 120°52'0 0.0
2019-Jun-01 19:29N 33°14' E 120°52'0 0.0
2019-Jun-01 18:59N 33°14' E 120°52'0 0.0
2019-Jun-01 18:29N 33°14' E 120°52'0 0.0
2019-Jun-01 17:59N 33°14' E 120°52'0 0.0
2019-Jun-01 17:29N 33°14' E 120°52'0 0.0
2019-Jun-01 16:59N 33°14' E 120°52'0 0.0
2019-Jun-01 16:29N 33°14' E 120°52'0 0.0
2019-Jun-01 15:59N 33°14' E 120°52'0 0.0
2019-Jun-01 15:29N 33°14' E 120°52'0 0.0
2019-Jun-01 14:59N 33°14' E 120°52'0 0.0
2019-Jun-01 14:29N 33°14' E 120°52'0 0.0
2019-Jun-01 13:59N 33°14' E 120°52'0 0.0
2019-Jun-01 13:29N 33°14' E 120°52'0 0.0
2019-Jun-01 12:59N 33°14' E 120°52'0 0.0
2019-Jun-01 12:29N 33°14' E 120°52'0 0.0
2019-Jun-01 11:59N 33°14' E 120°52'0 0.0
2019-Jun-01 11:29N 33°14' E 120°52'0 0.0
2019-Jun-01 10:59N 33°14' E 120°52'0 0.0
2019-Jun-01 10:29N 33°14' E 120°52'0 0.0
2019-Jun-01 09:59N 33°14' E 120°52'0 0.0
2019-Jun-01 09:29N 33°14' E 120°52'0 0.0
2019-Jun-01 08:44N 33°14' E 120°52'0 0.0
2019-Jun-01 08:29N 33°14' E 120°52'0 0.0
2019-Jun-01 07:59N 33°14' E 120°52'0 0.0
2019-Jun-01 07:29N 33°14' E 120°52'0 0.0
2019-Jun-01 06:59N 33°14' E 120°52'0 0.0
2019-Jun-01 06:29N 33°14' E 120°52'0 0.0
2019-Jun-01 05:59N 33°14' E 120°52'0 0.0
2019-Jun-01 05:29N 33°14' E 120°52'0 0.0
2019-Jun-01 04:59N 33°14' E 120°52'0 0.0
2019-Jun-01 04:29N 33°14' E 120°52'0 0.0
2019-Jun-01 03:59N 33°14' E 120°52'0 0.0
2019-Jun-01 03:29N 33°14' E 120°52'0 0.0
2019-Jun-01 02:59N 33°14' E 120°52'0 0.0
2019-Jun-01 02:30N 33°14' E 120°52'0 0.1
2019-Jun-01 02:00N 33°14' E 120°52'1 1.7
2019-Jun-01 01:31N 33°13' E 120°53'2 3.2
2019-Jun-01 01:00N 33°13' E 120°54'0 0.3
2019-Jun-01 00:30N 33°13' E 120°55'0 0.1
2019-Jun-01 00:00N 33°13' E 120°55'0 0.0
2019-May-31 23:30N 33°13' E 120°55'0 0.0
2019-May-31 23:00N 33°13' E 120°55'0 0.1
2019-May-31 22:30N 33°13' E 120°55'0 0.1
2019-May-31 21:57N 33°13' E 120°55'0 0.6
2019-May-31 21:30N 33°13' E 120°54'0 0.3
2019-May-31 21:00N 33°13' E 120°54'0 0.0
2019-May-31 20:30N 33°13' E 120°54'0 0.0
2019-May-31 20:00N 33°13' E 120°54'0 0.0
2019-May-31 19:30N 33°13' E 120°54'0 0.0
2019-May-31 19:00N 33°13' E 120°54'0 0.0
2019-May-31 18:27N 33°13' E 120°54'0 0.0
2019-May-31 18:00N 33°13' E 120°54'0 0.0
2019-May-31 17:30N 33°13' E 120°54'0 0.0
2019-May-31 17:00N 33°13' E 120°54'0 0.1
2019-May-31 16:30N 33°13' E 120°54'0 0.1
2019-May-31 16:00N 33°13' E 120°54'0 0.0
2019-May-31 15:30N 33°13' E 120°54'0 0.1
2019-May-31 15:00N 33°13' E 120°55'0 0.4
2019-May-31 14:30N 33°13' E 120°55'0 0.2
2019-May-31 14:00N 33°13' E 120°55'0 0.0
2019-May-31 13:30N 33°13' E 120°55'0 0.0
2019-May-31 13:00N 33°13' E 120°55'0 0.0
2019-May-31 12:30N 33°13' E 120°55'0 0.0
2019-May-31 12:00N 33°13' E 120°55'0 0.0
2019-May-31 11:30N 33°13' E 120°55'0 0.0
2019-May-31 11:00N 33°13' E 120°55'0 0.1
2019-May-31 10:30N 33°13' E 120°55'0 0.0
2019-May-31 10:00N 33°13' E 120°55'0 0.1
2019-May-31 09:30N 33°13' E 120°55'0 0.5
2019-May-31 09:00N 33°13' E 120°54'0 0.2
2019-May-31 08:30N 33°13' E 120°54'0 0.1
2019-May-31 08:00N 33°13' E 120°54'0 0.1
2019-May-31 07:30N 33°13' E 120°54'0 0.1
2019-May-31 07:00N 33°13' E 120°54'0 0.0
2019-May-31 06:30N 33°13' E 120°54'0 0.1
2019-May-31 06:00N 33°13' E 120°54'0 0.1
2019-May-31 05:30N 33°13' E 120°54'0 0.0
2019-May-31 04:48N 33°13' E 120°54'0 0.2
2019-May-31 04:30N 33°13' E 120°54'0 0.1
2019-May-31 04:00N 33°13' E 120°54'0 0.1
2019-May-31 03:27N 33°13' E 120°54'0 0.0
2019-May-31 03:00N 33°13' E 120°54'0 0.5
2019-May-31 02:30N 33°13' E 120°55'0 0.3
2019-May-31 02:00N 33°13' E 120°55'0 0.0
2019-May-31 01:30N 33°13' E 120°55'0 0.0
2019-May-31 01:00N 33°13' E 120°55'0 0.0
2019-May-31 00:30N 33°13' E 120°55'0 0.0
2019-May-31 00:00N 33°13' E 120°55'0 0.0
2019-May-30 23:30N 33°13' E 120°55'0 0.0
2019-May-30 23:00N 33°13' E 120°55'0 0.0
2019-May-30 22:30N 33°13' E 120°55'0 0.0
2019-May-30 22:00N 33°13' E 120°55'0 0.1
2019-May-30 21:30N 33°13' E 120°55'0 0.0
2019-May-30 21:00N 33°13' E 120°55'0 0.5
2019-May-30 20:30N 33°13' E 120°55'0 0.2
2019-May-30 20:00N 33°13' E 120°54'0 0.1
2019-May-30 19:30N 33°13' E 120°54'0 0.0
2019-May-30 19:00N 33°13' E 120°54'0 0.0
2019-May-30 18:30N 33°13' E 120°54'0 0.0
2019-May-30 18:00N 33°13' E 120°54'0 0.0
2019-May-30 17:30N 33°13' E 120°54'0 0.0
2019-May-30 17:00N 33°13' E 120°54'0 0.0
2019-May-30 16:30N 33°13' E 120°54'0 0.1
2019-May-30 16:00N 33°13' E 120°54'0 0.1
2019-May-30 15:30N 33°13' E 120°54'0 0.1
2019-May-30 15:00N 33°13' E 120°54'0 0.0
2019-May-30 14:30N 33°13' E 120°54'0 0.1
2019-May-30 14:00N 33°13' E 120°54'1 2.4
2019-May-30 13:30N 33°14' E 120°53'4 7.7
2019-May-30 13:00N 33°17' E 120°51'510.4
2019-May-30 12:30N 33°22' E 120°50'510.2
2019-May-30 12:00N 33°27' E 120°48'4 8.7
2019-May-30 11:30N 33°31' E 120°46'3 6.4
2019-May-30 11:00N 33°34' E 120°46'5 9.3
2019-May-30 10:29N 33°39' E 120°49'4 8.3
2019-May-30 10:00N 33°42' E 120°51'46 6.1
2019-May-30 02:25N 34°27' E 121°03'0 0.0
2019-May-30 01:55N 34°27' E 121°03'0 0.1
2019-May-30 01:25N 34°27' E 121°04'0 0.0
2019-May-30 00:55N 34°27' E 121°04'0 0.1
2019-May-30 00:25N 34°27' E 121°04'0 0.2
2019-May-29 23:55N 34°27' E 121°04'0 0.1
2019-May-29 22:37N 34°27' E 121°04'0 0.0
2019-May-29 22:25N 34°27' E 121°04'0 0.0
2019-May-29 21:49N 34°27' E 121°04'0 0.0
2019-May-29 20:49N 34°27' E 121°04'0 0.0
2019-May-29 20:19N 34°27' E 121°04'0 0.1
2019-May-29 19:55N 34°27' E 121°04'0 0.3
2019-May-29 19:25N 34°27' E 121°03'0 0.4
2019-May-29 18:58N 34°27' E 121°03'0 0.1
2019-May-29 18:28N 34°27' E 121°03'0 0.0
2019-May-29 17:52N 34°27' E 121°03'0 0.0
2019-May-29 17:28N 34°27' E 121°03'0 0.0
2019-May-29 16:55N 34°27' E 121°03'0 0.0
2019-May-29 16:28N 34°27' E 121°03'0 0.1
2019-May-29 15:55N 34°27' E 121°04'0 0.0
2019-May-29 15:25N 34°27' E 121°04'0 0.0
2019-May-29 14:55N 34°27' E 121°04'0 0.0
2019-May-29 14:25N 34°27' E 121°04'0 0.0
2019-May-29 13:58N 34°27' E 121°04'0 0.0
2019-May-29 13:25N 34°27' E 121°04'0 0.0
2019-May-29 12:58N 34°27' E 121°04'0 0.1
2019-May-29 12:25N 34°27' E 121°04'0 0.2
2019-May-29 11:58N 34°27' E 121°04'0 0.2
2019-May-29 11:28N 34°27' E 121°04'0 0.0
2019-May-29 10:49N 34°27' E 121°04'0 0.1
2019-May-29 10:19N 34°27' E 121°04'0 0.0
2019-May-29 03:01N 34°27' E 121°03'0 0.0
2019-May-29 02:55N 34°27' E 121°03'0 0.0
2019-May-29 00:25N 34°27' E 121°04'0 0.1
2019-May-28 21:07N 34°27' E 121°04'0 0.0
2019-May-28 20:25N 34°27' E 121°04'0 0.0
2019-May-28 19:55N 34°27' E 121°04'0 0.0
2019-May-28 19:19N 34°27' E 121°04'0 0.1
2019-May-28 16:31N 34°27' E 121°04'0 0.0
2019-May-28 16:25N 34°27' E 121°04'0 0.0
2019-May-28 15:58N 34°27' E 121°04'0 0.0
2019-May-28 15:25N 34°27' E 121°04'0 0.0
2019-May-28 14:58N 34°27' E 121°04'0 0.0
2019-May-28 14:25N 34°27' E 121°04'0 0.0
2019-May-28 13:58N 34°27' E 121°04'0 0.0
2019-May-28 13:25N 34°27' E 121°04'0 0.0
2019-May-28 12:55N 34°27' E 121°04'0 0.0
2019-May-28 12:28N 34°27' E 121°04'0 0.0
2019-May-28 06:49N 34°27' E 121°04'0 0.1
2019-May-28 06:25N 34°27' E 121°04'0 0.0
2019-May-28 05:55N 34°27' E 121°04'0 0.0
2019-May-28 05:25N 34°27' E 121°04'0 0.1
2019-May-28 04:31N 34°27' E 121°03'0 0.1
2019-May-28 04:25N 34°27' E 121°03'0 0.1
2019-May-28 03:52N 34°27' E 121°03'0 0.1
2019-May-28 03:13N 34°27' E 121°03'0 0.2
2019-May-28 02:55N 34°27' E 121°03'0 0.0
2019-May-28 02:25N 34°27' E 121°03'0 0.0
2019-May-28 01:58N 34°27' E 121°03'0 0.0
2019-May-28 01:28N 34°27' E 121°03'0 0.0
2019-May-28 00:55N 34°27' E 121°03'0 0.1
2019-May-28 00:28N 34°27' E 121°04'0 0.0
2019-May-27 23:58N 34°27' E 121°04'0 0.0
2019-May-27 23:28N 34°27' E 121°04'0 0.1
2019-May-27 22:55N 34°27' E 121°04'0 0.2
2019-May-27 22:25N 34°27' E 121°04'0 0.1
2019-May-27 21:07N 34°27' E 121°04'0 0.0
2019-May-27 20:37N 34°27' E 121°04'0 0.0
2019-May-27 20:25N 34°27' E 121°04'0 0.0
2019-May-27 19:49N 34°27' E 121°04'0 0.0
2019-May-27 19:25N 34°27' E 121°04'0 0.0
2019-May-27 18:31N 34°27' E 121°04'  
Track history (hours):
 
Tides and Currents Weather Stations Pressure Air Temp Water Temp Dewpoint Dewpoint Depression Visibility Wind Speed Wind Dir Waves Ship Positions

Condor Express

Operator: Condor Marine Services

Last reported at 2019-Jun-05 03:28 UTC. Time now 2019-Jun-16 14:53 UTC.
Position N 31°07' E 123°25'.
Warning: this ship's position is 11 days out of date.

Length 235 m; draft 7.7 m.

Type: Cargo ship. MMSI: 563014500.

Date/timePositionNaut miles runAvg speedWind from/ knotsBaromVisibWave heightAir tempDewpointWater temp
2019-Jun-05 03:28N 31°07' E 123°25'610.3
2019-Jun-05 02:56N 31°12' E 123°23'410.2
2019-Jun-05 02:30N 31°15' E 123°20'6 9.9
2019-Jun-05 01:56N 31°20' E 123°15'610.3
2019-Jun-05 01:22N 31°25' E 123°12'1210.7
2019-Jun-05 00:16N 31°35' E 123°06'711.5
2019-Jun-04 23:40N 31°42' E 123°02'211.8
2019-Jun-04 23:30N 31°43' E 123°01'612.0
2019-Jun-04 22:59N 31°49' E 122°59'712.1
2019-Jun-04 22:25N 31°55' E 122°55'1012.5
2019-Jun-04 21:38N 32°03' E 122°49'612.1
2019-Jun-04 21:08N 32°09' E 122°46'211.7
2019-Jun-04 20:59N 32°10' E 122°45'1711.0
2019-Jun-04 19:29N 32°25' E 122°36'510.2
2019-Jun-04 19:00N 32°30' E 122°33'510.3
2019-Jun-04 18:29N 32°34' E 122°31'18 9.7
2019-Jun-04 16:35N 32°51' E 122°21'1 9.4
2019-Jun-04 16:28N 32°52' E 122°20'5 9.7
2019-Jun-04 15:55N 32°57' E 122°18'410.0
2019-Jun-04 15:30N 33°01' E 122°17'610.5
2019-Jun-04 14:54N 33°07' E 122°14'411.1
2019-Jun-04 14:30N 33°11' E 122°12'611.4
2019-Jun-04 13:58N 33°17' E 122°10'511.5
2019-Jun-04 13:30N 33°21' E 122°07'611.4
2019-Jun-04 13:00N 33°26' E 122°04'713.0
2019-Jun-04 12:30N 33°32' E 122°00'612.8
2019-Jun-04 12:00N 33°38' E 121°57'711.8
2019-Jun-04 11:23N 33°41' E 121°49'612.3
2019-Jun-04 10:52N 33°44' E 121°42'512.3
2019-Jun-04 10:27N 33°46' E 121°36'612.3
2019-Jun-04 10:00N 33°48' E 121°30'611.4
2019-Jun-04 09:30N 33°48' E 121°23'612.9
2019-Jun-04 09:00N 33°45' E 121°17'612.9
2019-Jun-04 08:30N 33°42' E 121°09'611.7
2019-Jun-04 08:00N 33°42' E 121°02'611.5
2019-Jun-04 07:30N 33°42' E 120°55'611.3
2019-Jun-04 07:00N 33°41' E 120°49'612.5
2019-Jun-04 06:30N 33°36' E 120°45'714.2
2019-Jun-04 06:01N 33°29' E 120°47'713.7
2019-Jun-04 05:30N 33°22' E 120°50'612.4
2019-Jun-04 05:00N 33°16' E 120°52'2 4.3
2019-Jun-04 04:29N 33°14' E 120°52'0 0.0
2019-Jun-04 03:59N 33°14' E 120°52'0 0.0
2019-Jun-04 03:29N 33°14' E 120°52'0 0.0
2019-Jun-04 02:59N 33°14' E 120°52'0 0.0
2019-Jun-04 02:29N 33°14' E 120°52'0 0.0
2019-Jun-04 01:59N 33°14' E 120°52'0 0.0
2019-Jun-04 01:29N 33°14' E 120°52'0 0.0
2019-Jun-04 00:59N 33°14' E 120°52'0 0.0
2019-Jun-04 00:29N 33°14' E 120°52'0 0.0
2019-Jun-03 23:59N 33°14' E 120°52'0 0.0
2019-Jun-03 23:26N 33°14' E 120°52'0 0.0
2019-Jun-03 22:59N 33°14' E 120°52'0 0.0
2019-Jun-03 22:29N 33°14' E 120°52'0 0.0
2019-Jun-03 21:59N 33°14' E 120°52'0 0.0
2019-Jun-03 21:29N 33°14' E 120°52'0 0.0
2019-Jun-03 20:59N 33°14' E 120°52'0 0.0
2019-Jun-03 20:29N 33°14' E 120°52'0 0.0
2019-Jun-03 19:59N 33°14' E 120°52'0 0.0
2019-Jun-03 19:29N 33°14' E 120°52'0 0.0
2019-Jun-03 18:59N 33°14' E 120°52'0 0.0
2019-Jun-03 18:29N 33°14' E 120°52'0 0.0
2019-Jun-03 17:59N 33°14' E 120°52'0 0.0
2019-Jun-03 17:29N 33°14' E 120°52'0 0.0
2019-Jun-03 16:59N 33°14' E 120°52'0 0.0
2019-Jun-03 16:29N 33°14' E 120°52'0 0.0
2019-Jun-03 15:59N 33°14' E 120°52'0 0.0
2019-Jun-03 15:29N 33°14' E 120°52'0 0.0
2019-Jun-03 14:59N 33°14' E 120°52'0 0.0
2019-Jun-03 14:26N 33°14' E 120°52'0 0.0
2019-Jun-03 13:59N 33°14' E 120°52'0 0.0
2019-Jun-03 13:29N 33°14' E 120°52'0 0.0
2019-Jun-03 12:59N 33°14' E 120°52'0 0.0
2019-Jun-03 12:29N 33°14' E 120°52'0 0.0
2019-Jun-03 11:59N 33°14' E 120°52'0 0.0
2019-Jun-03 11:29N 33°14' E 120°52'0 0.0
2019-Jun-03 10:59N 33°14' E 120°52'0 0.0
2019-Jun-03 10:29N 33°14' E 120°52'0 0.0
2019-Jun-03 09:59N 33°14' E 120°52'0 0.0
2019-Jun-03 09:29N 33°14' E 120°52'0 0.0
2019-Jun-03 08:59N 33°14' E 120°52'0 0.0
2019-Jun-03 08:29N 33°14' E 120°52'0 0.0
2019-Jun-03 07:59N 33°14' E 120°52'0 0.0
2019-Jun-03 07:29N 33°14' E 120°52'0 0.0
2019-Jun-03 06:59N 33°14' E 120°52'0 0.0
2019-Jun-03 06:29N 33°14' E 120°52'0 0.0
2019-Jun-03 05:59N 33°14' E 120°52'0 0.0
2019-Jun-03 05:29N 33°14' E 120°52'0 0.0
2019-Jun-03 04:59N 33°14' E 120°52'0 0.0
2019-Jun-03 04:29N 33°14' E 120°52'0 0.0
2019-Jun-03 03:59N 33°14' E 120°52'0 0.0
2019-Jun-03 03:29N 33°14' E 120°52'0 0.0
2019-Jun-03 02:59N 33°14' E 120°52'0 0.0
2019-Jun-03 02:29N 33°14' E 120°52'0 0.0
2019-Jun-03 01:59N 33°14' E 120°52'0 0.0
2019-Jun-03 01:29N 33°14' E 120°52'0 0.0
2019-Jun-03 00:59N 33°14' E 120°52'0 0.0
2019-Jun-03 00:29N 33°14' E 120°52'0 0.0
2019-Jun-02 23:59N 33°14' E 120°52'0 0.0
2019-Jun-02 23:29N 33°14' E 120°52'0 0.0
2019-Jun-02 22:59N 33°14' E 120°52'0 0.0
2019-Jun-02 22:29N 33°14' E 120°52'0 0.0
2019-Jun-02 21:59N 33°14' E 120°52'0 0.0
2019-Jun-02 21:29N 33°14' E 120°52'0 0.0
2019-Jun-02 20:59N 33°14' E 120°52'0 0.0
2019-Jun-02 20:29N 33°14' E 120°52'0 0.0
2019-Jun-02 19:59N 33°14' E 120°52'0 0.0
2019-Jun-02 19:29N 33°14' E 120°52'0 0.0
2019-Jun-02 18:59N 33°14' E 120°52'0 0.0
2019-Jun-02 18:29N 33°14' E 120°52'0 0.0
2019-Jun-02 17:59N 33°14' E 120°52'0 0.0
2019-Jun-02 17:29N 33°14' E 120°52'0 0.0
2019-Jun-02 16:59N 33°14' E 120°52'0 0.0
2019-Jun-02 16:29N 33°14' E 120°52'0 0.0
2019-Jun-02 15:59N 33°14' E 120°52'0 0.0
2019-Jun-02 15:29N 33°14' E 120°52'0 0.0
2019-Jun-02 14:59N 33°14' E 120°52'0 0.0
2019-Jun-02 14:29N 33°14' E 120°52'0 0.0
2019-Jun-02 13:59N 33°14' E 120°52'0 0.0
2019-Jun-02 13:29N 33°14' E 120°52'0 0.0
2019-Jun-02 12:59N 33°14' E 120°52'0 0.0
2019-Jun-02 12:29N 33°14' E 120°52'0 0.0
2019-Jun-02 11:59N 33°14' E 120°52'0 0.0
2019-Jun-02 11:29N 33°14' E 120°52'0 0.0
2019-Jun-02 10:59N 33°14' E 120°52'0 0.0
2019-Jun-02 10:29N 33°14' E 120°52'0 0.0
2019-Jun-02 09:59N 33°14' E 120°52'0 0.0
2019-Jun-02 09:29N 33°14' E 120°52'0 0.0
2019-Jun-02 08:59N 33°14' E 120°52'0 0.0
2019-Jun-02 08:29N 33°14' E 120°52'0 0.0
2019-Jun-02 07:59N 33°14' E 120°52'0 0.0
2019-Jun-02 07:29N 33°14' E 120°52'0 0.0
2019-Jun-02 06:59N 33°14' E 120°52'0 0.0
2019-Jun-02 06:29N 33°14' E 120°52'0 0.0
2019-Jun-02 05:59N 33°14' E 120°52'0 0.0
2019-Jun-02 05:29N 33°14' E 120°52'0 0.0
2019-Jun-02 04:59N 33°14' E 120°52'0 0.0
2019-Jun-02 04:29N 33°14' E 120°52'0 0.0
2019-Jun-02 03:59N 33°14' E 120°52'0 0.0
2019-Jun-02 03:29N 33°14' E 120°52'0 0.0
2019-Jun-02 02:59N 33°14' E 120°52'0 0.0
2019-Jun-02 02:29N 33°14' E 120°52'0 0.0
2019-Jun-02 01:59N 33°14' E 120°52'0 0.0
2019-Jun-02 01:29N 33°14' E 120°52'0 0.0
2019-Jun-02 00:59N 33°14' E 120°52'0 0.0
2019-Jun-02 00:29N 33°14' E 120°52'0 0.0
2019-Jun-01 23:59N 33°14' E 120°52'0 0.0
2019-Jun-01 23:29N 33°14' E 120°52'0 0.0
2019-Jun-01 22:59N 33°14' E 120°52'0 0.0
2019-Jun-01 22:29N 33°14' E 120°52'0 0.0
2019-Jun-01 21:59N 33°14' E 120°52'0 0.0
2019-Jun-01 21:29N 33°14' E 120°52'0 0.0
2019-Jun-01 20:59N 33°14' E 120°52'0 0.0
2019-Jun-01 20:29N 33°14' E 120°52'0 0.0
2019-Jun-01 19:59N 33°14' E 120°52'0 0.0
2019-Jun-01 19:29N 33°14' E 120°52'0 0.0
2019-Jun-01 18:59N 33°14' E 120°52'0 0.0
2019-Jun-01 18:29N 33°14' E 120°52'0 0.0
2019-Jun-01 17:59N 33°14' E 120°52'0 0.0
2019-Jun-01 17:29N 33°14' E 120°52'0 0.0
2019-Jun-01 16:59N 33°14' E 120°52'0 0.0
2019-Jun-01 16:29N 33°14' E 120°52'0 0.0
2019-Jun-01 15:59N 33°14' E 120°52'0 0.0
2019-Jun-01 15:29N 33°14' E 120°52'0 0.0
2019-Jun-01 14:59N 33°14' E 120°52'0 0.0
2019-Jun-01 14:29N 33°14' E 120°52'0 0.0
2019-Jun-01 13:59N 33°14' E 120°52'0 0.0
2019-Jun-01 13:29N 33°14' E 120°52'0 0.0
2019-Jun-01 12:59N 33°14' E 120°52'0 0.0
2019-Jun-01 12:29N 33°14' E 120°52'0 0.0
2019-Jun-01 11:59N 33°14' E 120°52'0 0.0
2019-Jun-01 11:29N 33°14' E 120°52'0 0.0
2019-Jun-01 10:59N 33°14' E 120°52'0 0.0
2019-Jun-01 10:29N 33°14' E 120°52'0 0.0
2019-Jun-01 09:59N 33°14' E 120°52'0 0.0
2019-Jun-01 09:29N 33°14' E 120°52'0 0.0
2019-Jun-01 08:44N 33°14' E 120°52'0 0.0
2019-Jun-01 08:29N 33°14' E 120°52'0 0.0
2019-Jun-01 07:59N 33°14' E 120°52'0 0.0
2019-Jun-01 07:29N 33°14' E 120°52'0 0.0
2019-Jun-01 06:59N 33°14' E 120°52'0 0.0
2019-Jun-01 06:29N 33°14' E 120°52'0 0.0
2019-Jun-01 05:59N 33°14' E 120°52'0 0.0
2019-Jun-01 05:29N 33°14' E 120°52'0 0.0
2019-Jun-01 04:59N 33°14' E 120°52'0 0.0
2019-Jun-01 04:29N 33°14' E 120°52'0 0.0
2019-Jun-01 03:59N 33°14' E 120°52'0 0.0
2019-Jun-01 03:29N 33°14' E 120°52'0 0.0
2019-Jun-01 02:59N 33°14' E 120°52'0 0.0
2019-Jun-01 02:30N 33°14' E 120°52'0 0.1
2019-Jun-01 02:00N 33°14' E 120°52'1 1.7
2019-Jun-01 01:31N 33°13' E 120°53'2 3.2
2019-Jun-01 01:00N 33°13' E 120°54'0 0.3
2019-Jun-01 00:30N 33°13' E 120°55'0 0.1
2019-Jun-01 00:00N 33°13' E 120°55'0 0.0
2019-May-31 23:30N 33°13' E 120°55'0 0.0
2019-May-31 23:00N 33°13' E 120°55'0 0.1
2019-May-31 22:30N 33°13' E 120°55'0 0.1
2019-May-31 21:57N 33°13' E 120°55'0 0.6
2019-May-31 21:30N 33°13' E 120°54'0 0.3
2019-May-31 21:00N 33°13' E 120°54'0 0.0
2019-May-31 20:30N 33°13' E 120°54'0 0.0
2019-May-31 20:00N 33°13' E 120°54'0 0.0
2019-May-31 19:30N 33°13' E 120°54'0 0.0
2019-May-31 19:00N 33°13' E 120°54'0 0.0
2019-May-31 18:27N 33°13' E 120°54'0 0.0
2019-May-31 18:00N 33°13' E 120°54'0 0.0
2019-May-31 17:30N 33°13' E 120°54'0 0.0
2019-May-31 17:00N 33°13' E 120°54'0 0.1
2019-May-31 16:30N 33°13' E 120°54'0 0.1
2019-May-31 16:00N 33°13' E 120°54'0 0.0
2019-May-31 15:30N 33°13' E 120°54'0 0.1
2019-May-31 15:00N 33°13' E 120°55'0 0.4
2019-May-31 14:30N 33°13' E 120°55'0 0.2
2019-May-31 14:00N 33°13' E 120°55'0 0.0
2019-May-31 13:30N 33°13' E 120°55'0 0.0
2019-May-31 13:00N 33°13' E 120°55'0 0.0
2019-May-31 12:30N 33°13' E 120°55'0 0.0
2019-May-31 12:00N 33°13' E 120°55'0 0.0
2019-May-31 11:30N 33°13' E 120°55'0 0.0
2019-May-31 11:00N 33°13' E 120°55'0 0.1
2019-May-31 10:30N 33°13' E 120°55'0 0.0
2019-May-31 10:00N 33°13' E 120°55'0 0.1
2019-May-31 09:30N 33°13' E 120°55'0 0.5
2019-May-31 09:00N 33°13' E 120°54'0 0.2
2019-May-31 08:30N 33°13' E 120°54'0 0.1
2019-May-31 08:00N 33°13' E 120°54'0 0.1
2019-May-31 07:30N 33°13' E 120°54'0 0.1
2019-May-31 07:00N 33°13' E 120°54'0 0.0
2019-May-31 06:30N 33°13' E 120°54'0 0.1
2019-May-31 06:00N 33°13' E 120°54'0 0.1
2019-May-31 05:30N 33°13' E 120°54'0 0.0
2019-May-31 04:48N 33°13' E 120°54'0 0.2
2019-May-31 04:30N 33°13' E 120°54'0 0.1
2019-May-31 04:00N 33°13' E 120°54'0 0.1
2019-May-31 03:27N 33°13' E 120°54'0 0.0
2019-May-31 03:00N 33°13' E 120°54'0 0.5
2019-May-31 02:30N 33°13' E 120°55'0 0.3
2019-May-31 02:00N 33°13' E 120°55'0 0.0
2019-May-31 01:30N 33°13' E 120°55'0 0.0
2019-May-31 01:00N 33°13' E 120°55'0 0.0
2019-May-31 00:30N 33°13' E 120°55'0 0.0
2019-May-31 00:00N 33°13' E 120°55'0 0.0
2019-May-30 23:30N 33°13' E 120°55'0 0.0
2019-May-30 23:00N 33°13' E 120°55'0 0.0
2019-May-30 22:30N 33°13' E 120°55'0 0.0
2019-May-30 22:00N 33°13' E 120°55'0 0.1
2019-May-30 21:30N 33°13' E 120°55'0 0.0
2019-May-30 21:00N 33°13' E 120°55'0 0.5
2019-May-30 20:30N 33°13' E 120°55'0 0.2
2019-May-30 20:00N 33°13' E 120°54'0 0.1
2019-May-30 19:30N 33°13' E 120°54'0 0.0
2019-May-30 19:00N 33°13' E 120°54'0 0.0
2019-May-30 18:30N 33°13' E 120°54'0 0.0
2019-May-30 18:00N 33°13' E 120°54'0 0.0
2019-May-30 17:30N 33°13' E 120°54'0 0.0
2019-May-30 17:00N 33°13' E 120°54'0 0.0
2019-May-30 16:30N 33°13' E 120°54'0 0.1
2019-May-30 16:00N 33°13' E 120°54'0 0.1
2019-May-30 15:30N 33°13' E 120°54'0 0.1
2019-May-30 15:00N 33°13' E 120°54'0 0.0
2019-May-30 14:30N 33°13' E 120°54'0 0.1
2019-May-30 14:00N 33°13' E 120°54'1 2.4
2019-May-30 13:30N 33°14' E 120°53'4 7.7
2019-May-30 13:00N 33°17' E 120°51'510.4
2019-May-30 12:30N 33°22' E 120°50'510.2
2019-May-30 12:00N 33°27' E 120°48'4 8.7
2019-May-30 11:30N 33°31' E 120°46'3 6.4
2019-May-30 11:00N 33°34' E 120°46'5 9.3
2019-May-30 10:29N 33°39' E 120°49'4 8.3
2019-May-30 10:00N 33°42' E 120°51'46 6.1
2019-May-30 02:25N 34°27' E 121°03'0 0.0
2019-May-30 01:55N 34°27' E 121°03'0 0.1
2019-May-30 01:25N 34°27' E 121°04'0 0.0
2019-May-30 00:55N 34°27' E 121°04'0 0.1
2019-May-30 00:25N 34°27' E 121°04'0 0.2
2019-May-29 23:55N 34°27' E 121°04'0 0.1
2019-May-29 22:37N 34°27' E 121°04'0 0.0
2019-May-29 22:25N 34°27' E 121°04'0 0.0
2019-May-29 21:49N 34°27' E 121°04'0 0.0
2019-May-29 20:49N 34°27' E 121°04'0 0.0
2019-May-29 20:19N 34°27' E 121°04'0 0.1
2019-May-29 19:55N 34°27' E 121°04'0 0.3
2019-May-29 19:25N 34°27' E 121°03'0 0.4
2019-May-29 18:58N 34°27' E 121°03'0 0.1
2019-May-29 18:28N 34°27' E 121°03'0 0.0
2019-May-29 17:52N 34°27' E 121°03'0 0.0
2019-May-29 17:28N 34°27' E 121°03'0 0.0
2019-May-29 16:55N 34°27' E 121°03'0 0.0
2019-May-29 16:28N 34°27' E 121°03'0 0.1
2019-May-29 15:55N 34°27' E 121°04'0 0.0
2019-May-29 15:25N 34°27' E 121°04'0 0.0
2019-May-29 14:55N 34°27' E 121°04'0 0.0
2019-May-29 14:25N 34°27' E 121°04'0 0.0
2019-May-29 13:58N 34°27' E 121°04'0 0.0
2019-May-29 13:25N 34°27' E 121°04'0 0.0
2019-May-29 12:58N 34°27' E 121°04'0 0.1
2019-May-29 12:25N 34°27' E 121°04'0 0.2
2019-May-29 11:58N 34°27' E 121°04'0 0.2
2019-May-29 11:28N 34°27' E 121°04'0 0.0
2019-May-29 10:49N 34°27' E 121°04'0 0.1
2019-May-29 10:19N 34°27' E 121°04'0 0.0
2019-May-29 03:01N 34°27' E 121°03'0 0.0
2019-May-29 02:55N 34°27' E 121°03'0 0.0
2019-May-29 00:25N 34°27' E 121°04'0 0.1
2019-May-28 21:07N 34°27' E 121°04'0 0.0
2019-May-28 20:25N 34°27' E 121°04'0 0.0
2019-May-28 19:55N 34°27' E 121°04'0 0.0
2019-May-28 19:19N 34°27' E 121°04'0 0.1
2019-May-28 16:31N 34°27' E 121°04'0 0.0
2019-May-28 16:25N 34°27' E 121°04'0 0.0
2019-May-28 15:58N 34°27' E 121°04'0 0.0
2019-May-28 15:25N 34°27' E 121°04'0 0.0
2019-May-28 14:58N 34°27' E 121°04'0 0.0
2019-May-28 14:25N 34°27' E 121°04'0 0.0
2019-May-28 13:58N 34°27' E 121°04'0 0.0
2019-May-28 13:25N 34°27' E 121°04'0 0.0
2019-May-28 12:55N 34°27' E 121°04'0 0.0
2019-May-28 12:28N 34°27' E 121°04'0 0.0
2019-May-28 06:49N 34°27' E 121°04'0 0.1
2019-May-28 06:25N 34°27' E 121°04'0 0.0
2019-May-28 05:55N 34°27' E 121°04'0 0.0
2019-May-28 05:25N 34°27' E 121°04'0 0.1
2019-May-28 04:31N 34°27' E 121°03'0 0.1
2019-May-28 04:25N 34°27' E 121°03'0 0.1
2019-May-28 03:52N 34°27' E 121°03'0 0.1
2019-May-28 03:13N 34°27' E 121°03'0 0.2
2019-May-28 02:55N 34°27' E 121°03'0 0.0
2019-May-28 02:25N 34°27' E 121°03'0 0.0
2019-May-28 01:58N 34°27' E 121°03'0 0.0
2019-May-28 01:28N 34°27' E 121°03'0 0.0
2019-May-28 00:55N 34°27' E 121°03'0 0.1
2019-May-28 00:28N 34°27' E 121°04'0 0.0
2019-May-27 23:58N 34°27' E 121°04'0 0.0
2019-May-27 23:28N 34°27' E 121°04'0 0.1
2019-May-27 22:55N 34°27' E 121°04'0 0.2
2019-May-27 22:25N 34°27' E 121°04'0 0.1
2019-May-27 21:07N 34°27' E 121°04'0 0.0
2019-May-27 20:37N 34°27' E 121°04'0 0.0
2019-May-27 20:25N 34°27' E 121°04'0 0.0
2019-May-27 19:49N 34°27' E 121°04'0 0.0
2019-May-27 19:25N 34°27' E 121°04'0 0.0
2019-May-27 18:31N 34°27' E 121°04'  

Dump ship's entire track history